Time;durP1;ratioP1;P1;durP2;ratioP2;P2;SDS_P1;SDS_P2;PMS_P1;PMS_P2;Temp;Humidity;BMP_temperature;BMP_pressure;BME280_temperature;BME280_humidity;BME280_pressure;Samples;Min_cycle;Max_cycle;Signal;HPM_P1;HPM_P2
2024/01/24 00:02:21;;;;;;;;;14.60;13.60;;;;;8.40;100.00;99600.78;6018580;29;96337;-55
2024/01/24 00:05:25;;;;;;;;;14.00;13.00;;;;;8.40;100.00;99598.91;6019987;29;96410;-55
2024/01/24 00:08:28;;;;;;;;;13.20;12.00;;;;;8.31;100.00;99578.53;6016275;29;96685;-55
2024/01/24 00:11:32;;;;;;;;;14.00;12.00;;;;;8.24;100.00;99581.16;6019912;29;96704;-55
2024/01/24 00:14:35;;;;;;;;;12.80;11.80;;;;;8.24;100.00;99580.31;6019942;29;96304;-55
2024/01/24 00:17:38;;;;;;;;;14.00;12.80;;;;;8.17;100.00;99572.16;6020112;29;97262;-53
2024/01/24 00:20:42;;;;;;;;;13.40;11.40;;;;;8.13;100.00;99576.25;6021258;29;96413;-54
2024/01/24 00:23:45;;;;;;;;;14.00;11.50;;;;;8.10;100.00;99573.13;6021697;29;96404;-53
2024/01/24 00:26:49;;;;;;;;;12.60;11.60;;;;;8.02;100.00;99565.16;6020193;29;96293;-53
2024/01/24 00:29:52;;;;;;;;;14.00;14.00;;;;;8.01;100.00;99568.91;6021589;29;96388;-54
2024/01/24 00:32:55;;;;;;;;;10.00;8.00;;;;;8.03;100.00;99577.56;6016295;29;96322;-53
2024/01/24 00:35:59;;;;;;;;;10.20;9.20;;;;;7.96;100.00;99569.47;6016254;29;96437;-53
2024/01/24 00:39:03;;;;;;;;;10.25;9.75;;;;;8.00;100.00;99561.84;6019970;29;96375;-54
2024/01/24 00:42:08;;;;;;;;;10.80;8.40;;;;;7.97;100.00;99548.78;6019949;29;96555;-54
2024/01/24 00:45:11;;;;;;;;;9.00;8.00;;;;;7.96;100.00;99549.81;6018361;29;96531;-53
2024/01/24 00:48:15;;;;;;;;;8.60;8.00;;;;;7.96;100.00;99528.34;6009986;29;96237;-53
2024/01/24 00:51:18;;;;;;;;;11.75;10.25;;;;;7.96;100.00;99531.88;6021137;29;96356;-53
2024/01/24 00:54:21;;;;;;;;;8.00;8.00;;;;;7.98;100.00;99518.22;6025069;29;97164;-53
2024/01/24 00:57:26;;;;;;;;;10.00;8.00;;;;;8.00;100.00;99511.66;6024920;29;96939;-53
2024/01/24 01:00:29;;;;;;;;;9.00;8.20;;;;;7.92;100.00;99517.13;6021011;29;96921;-55
2024/01/24 01:03:32;;;;;;;;;10.00;9.00;;;;;7.94;100.00;99511.59;6025586;29;96724;-53
2024/01/24 01:06:35;;;;;;;;;11.00;9.00;;;;;7.89;100.00;99514.84;6023099;29;96915;-54
2024/01/24 01:09:38;;;;;;;;;11.00;9.00;;;;;7.86;100.00;99514.38;6024924;29;96287;-54
2024/01/24 01:12:43;;;;;;;;;10.00;8.60;;;;;7.87;100.00;99505.31;6010049;29;97066;-53
2024/01/24 01:15:46;;;;;;;;;9.00;8.00;;;;;7.79;100.00;99512.47;6022607;29;96680;-54
2024/01/24 01:18:50;;;;;;;;;7.50;7.00;;;;;7.80;100.00;99522.19;6020013;29;96185;-53
2024/01/24 01:21:53;;;;;;;;;8.00;7.75;;;;;7.89;100.00;99519.38;6022305;29;96262;-53
2024/01/24 01:24:56;;;;;;;;;7.00;6.40;;;;;7.88;100.00;99521.22;6022104;29;96399;-53
2024/01/24 01:28:04;;;;;;;;;8.00;6.60;;;;;7.93;100.00;99528.72;6039835;28;96154;-56
2024/01/24 01:34:54;;;;;;;;;7.00;6.00;;;;;7.93;100.00;99489.28;6460609;23;98354;-57
2024/01/24 01:37:57;;;;;;;;;9.00;7.60;;;;;7.91;100.00;99479.75;6058784;28;96585;-57
2024/01/24 01:41:01;;;;;;;;;7.00;6.00;;;;;7.87;100.00;99471.22;6052167;29;96351;-57
2024/01/24 01:44:05;;;;;;;;;7.00;6.00;;;;;7.95;100.00;99472.97;6038455;29;96214;-57
2024/01/24 01:47:10;;;;;;;;;8.60;5.60;;;;;7.93;100.00;99473.16;6020890;29;96692;-57
2024/01/24 01:50:15;;;;;;;;;8.00;7.00;;;;;7.91;100.00;99458.28;6050062;28;96918;-57
2024/01/24 01:53:18;;;;;;;;;6.80;6.80;;;;;7.81;100.00;99447.84;6051209;29;96335;-57
2024/01/24 01:56:23;;;;;;;;;5.60;5.00;;;;;7.80;100.00;99441.66;6049925;29;96326;-57
2024/01/24 01:59:28;;;;;;;;;7.00;6.00;;;;;7.75;100.00;99427.97;6044919;29;96297;-57
2024/01/24 02:02:31;;;;;;;;;6.60;6.00;;;;;7.67;100.00;99413.84;6132916;23;97729;-57
2024/01/24 02:05:35;;;;;;;;;6.00;6.00;;;;;7.68;100.00;99420.84;6072873;28;96271;-57
2024/01/24 02:08:41;;;;;;;;;6.00;5.00;;;;;7.47;100.00;99408.25;6074390;28;96337;-57
2024/01/24 02:11:44;;;;;;;;;6.00;5.00;;;;;7.46;100.00;99389.66;6064054;28;96657;-57
2024/01/24 02:14:49;;;;;;;;;8.00;7.00;;;;;7.52;100.00;99387.06;6074205;28;96789;-57
2024/01/24 02:17:52;;;;;;;;;8.20;7.20;;;;;7.51;100.00;99376.50;6073936;28;96967;-57
2024/01/24 02:20:56;;;;;;;;;7.00;7.00;;;;;7.32;100.00;99338.56;6064512;28;96644;-57
2024/01/24 02:24:00;;;;;;;;;9.00;9.00;;;;;7.39;100.00;99366.28;6074144;28;96318;-57
2024/01/24 02:27:05;;;;;;;;;7.00;6.00;;;;;7.38;100.00;99345.81;6074259;28;96299;-57
2024/01/24 02:30:09;;;;;;;;;8.80;8.00;;;;;7.27;100.00;99327.56;6052627;28;96437;-57
2024/01/24 02:33:13;;;;;;;;;8.40;7.00;;;;;7.43;100.00;99342.56;6063928;28;96392;-57
2024/01/24 02:36:16;;;;;;;;;7.80;6.00;;;;;7.50;100.00;99340.78;6060962;28;96266;-55
2024/01/24 02:39:19;;;;;;;;;7.00;6.00;;;;;7.48;100.00;99331.28;6047032;28;97036;-56
2024/01/24 02:42:23;;;;;;;;;8.00;7.00;;;;;7.51;100.00;99321.00;6046529;28;96541;-56
2024/01/24 02:45:27;;;;;;;;;7.20;6.60;;;;;7.61;100.00;99318.00;6031021;28;96290;-56
2024/01/24 02:48:30;;;;;;;;;6.80;6.20;;;;;7.60;100.00;99308.28;6041936;28;96821;-55
2024/01/24 02:51:33;;;;;;;;;7.00;7.00;;;;;7.60;100.00;99289.50;6024881;29;96563;-56
2024/01/24 02:54:37;;;;;;;;;7.00;6.00;;;;;7.61;100.00;99286.63;6043304;28;96302;-56
2024/01/24 02:57:41;;;;;;;;;7.40;6.20;;;;;7.71;100.00;99280.94;6046153;28;96613;-56
2024/01/24 03:00:44;;;;;;;;;7.60;7.00;;;;;7.62;100.00;99277.56;6047802;28;96544;-56
2024/01/24 03:03:48;;;;;;;;;8.00;7.00;;;;;7.80;100.00;99269.03;6047647;28;96331;-56
2024/01/24 03:06:51;;;;;;;;;9.00;8.00;;;;;7.79;100.00;99243.22;6042215;28;96286;-56
2024/01/24 03:09:54;;;;;;;;;10.00;8.00;;;;;7.70;100.00;99247.91;6041263;28;96643;-56
2024/01/24 03:12:59;;;;;;;;;9.00;8.00;;;;;7.77;100.00;99231.84;6048028;28;96401;-56
2024/01/24 03:16:02;;;;;;;;;7.00;6.20;;;;;7.77;100.00;99223.81;6047398;28;97479;-56
2024/01/24 03:19:07;;;;;;;;;8.00;7.00;;;;;7.89;100.00;99222.22;6048007;28;96381;-56
2024/01/24 03:22:10;;;;;;;;;8.00;6.00;;;;;7.85;100.00;99196.81;6038841;28;96215;-56
2024/01/24 03:25:16;;;;;;;;;8.00;7.60;;;;;7.91;100.00;99203.25;6044500;28;96431;-56
2024/01/24 03:28:20;;;;;;;;;6.00;5.00;;;;;7.97;100.00;99202.44;6041824;28;96330;-56
2024/01/24 03:31:24;;;;;;;;;8.00;7.00;;;;;7.95;100.00;99197.28;6033319;28;96317;-56
2024/01/24 03:34:30;;;;;;;;;5.00;4.00;;;;;8.04;100.00;99201.47;6034000;28;96609;-56
2024/01/24 03:37:33;;;;;;;;;5.00;5.00;;;;;7.99;100.00;99192.34;6045303;28;96808;-56
2024/01/24 03:40:36;;;;;;;;;8.00;7.00;;;;;8.02;100.00;99192.75;6025109;28;96223;-56
2024/01/24 03:43:41;;;;;;;;;6.00;6.00;;;;;8.14;100.00;99180.44;6036622;28;96503;-56
2024/01/24 03:46:44;;;;;;;;;7.00;7.00;;;;;8.12;100.00;99170.91;6041739;28;96356;-55
2024/01/24 03:49:47;;;;;;;;;8.00;7.00;;;;;8.11;100.00;99177.34;6036122;28;96306;-56
2024/01/24 03:52:51;;;;;;;;;6.00;5.40;;;;;8.14;100.00;99161.66;6042475;28;96749;-55
2024/01/24 03:55:54;;;;;;;;;8.00;6.00;;;;;8.15;100.00;99160.63;6039648;28;97027;-56
2024/01/24 03:58:58;;;;;;;;;5.80;5.20;;;;;8.28;100.00;99149.09;6019202;28;96382;-56
2024/01/24 04:02:01;;;;;;;;;6.75;6.00;;;;;8.26;100.00;99122.44;6039353;28;96203;-55
2024/01/24 04:05:05;;;;;;;;;6.00;6.00;;;;;8.34;100.00;99107.22;6042739;28;96407;-56
2024/01/24 04:08:08;;;;;;;;;7.40;7.00;;;;;8.39;100.00;99097.53;6038714;28;96604;-56
2024/01/24 04:11:11;;;;;;;;;7.50;7.50;;;;;8.46;100.00;99092.97;6040351;28;96876;-56
2024/01/24 04:14:16;;;;;;;;;7.00;7.00;;;;;8.48;100.00;99090.09;6025303;28;96319;-56
2024/01/24 04:17:19;;;;;;;;;7.00;7.00;;;;;8.24;100.00;99102.19;6035666;28;96360;-56
2024/01/24 04:20:22;;;;;;;;;8.40;7.40;;;;;8.43;100.00;99093.41;6033971;28;96263;-56
2024/01/24 04:23:26;;;;;;;;;7.00;6.00;;;;;8.41;100.00;99095.44;6026637;28;96524;-55
2024/01/24 04:26:29;;;;;;;;;6.00;5.60;;;;;8.45;100.00;99074.38;6044157;28;96642;-56
2024/01/24 04:29:33;;;;;;;;;7.00;7.00;;;;;8.26;100.00;99033.78;6044859;28;96233;-56
2024/01/24 04:32:36;;;;;;;;;6.20;6.00;;;;;8.47;100.00;99040.06;6034361;28;96815;-56
2024/01/24 04:35:39;;;;;;;;;6.25;6.25;;;;;8.53;100.00;99041.94;6042132;28;97181;-56
2024/01/24 04:38:43;;;;;;;;;5.40;5.00;;;;;8.54;99.91;99041.75;6030213;28;96281;-54
2024/01/24 04:41:46;;;;;;;;;4.00;3.00;;;;;8.56;100.00;99039.66;6032351;28;96192;-56
2024/01/24 04:44:52;;;;;;;;;5.60;5.60;;;;;8.57;100.00;99033.25;6039471;28;97248;-56
2024/01/24 04:47:55;;;;;;;;;5.40;5.00;;;;;8.60;100.00;99014.03;6039100;28;96663;-56
2024/01/24 04:50:58;;;;;;;;;6.00;4.00;;;;;8.71;100.00;99026.03;6031712;28;97369;-56
2024/01/24 04:54:02;;;;;;;;;5.40;4.80;;;;;8.64;100.00;99031.44;6036910;28;96278;-56
2024/01/24 04:57:05;;;;;;;;;5.00;5.00;;;;;8.66;100.00;99032.03;6043488;28;96217;-54
2024/01/24 05:00:11;;;;;;;;;4.00;4.00;;;;;8.68;100.00;99026.47;6070007;28;96410;-55
2024/01/24 05:03:15;;;;;;;;;4.40;4.40;;;;;8.75;100.00;99027.28;6062698;28;96354;-55
2024/01/24 05:06:19;;;;;;;;;4.00;4.00;;;;;8.74;100.00;99012.19;6064644;28;98107;-54
2024/01/24 05:09:22;;;;;;;;;4.00;4.00;;;;;8.80;100.00;99002.44;6069044;28;96831;-55
2024/01/24 05:12:25;;;;;;;;;5.20;4.00;;;;;8.86;100.00;98993.56;6059052;28;96334;-55
2024/01/24 05:15:29;;;;;;;;;5.00;4.60;;;;;8.97;100.00;98987.56;6060902;28;96540;-54
2024/01/24 05:18:32;;;;;;;;;6.00;6.00;;;;;8.97;100.00;98992.94;6040431;28;96627;-54
2024/01/24 05:21:41;;;;;;;;;6.00;4.00;;;;;9.00;100.00;98990.66;6059956;28;97262;-55
2024/01/24 05:24:45;;;;;;;;;6.00;5.00;;;;;9.05;100.00;98977.41;6061486;28;96406;-55
2024/01/24 05:27:48;;;;;;;;;5.67;5.67;;;;;9.15;100.00;98976.97;6062032;28;96421;-54
2024/01/24 05:30:53;;;;;;;;;5.00;4.00;;;;;9.16;100.00;98965.19;6062531;28;96285;-55
2024/01/24 05:33:56;;;;;;;;;5.00;4.60;;;;;9.21;100.00;98972.63;6064176;28;96791;-54
2024/01/24 05:37:00;;;;;;;;;3.50;3.00;;;;;9.23;100.00;98963.31;6070464;28;96837;-54
2024/01/24 05:40:05;;;;;;;;;3.80;3.80;;;;;9.21;100.00;98951.94;6055877;28;96572;-54
2024/01/24 05:43:08;;;;;;;;;7.75;6.00;;;;;9.18;100.00;98949.69;6069221;28;96315;-55
2024/01/24 05:46:13;;;;;;;;;6.00;6.00;;;;;9.10;100.00;98944.50;6060435;28;96571;-55
2024/01/24 05:49:16;;;;;;;;;5.00;5.00;;;;;9.24;100.00;98931.84;6062467;28;96890;-54
2024/01/24 05:52:19;;;;;;;;;5.20;4.00;;;;;9.23;100.00;98911.38;6064423;28;96171;-54
2024/01/24 05:55:22;;;;;;;;;6.00;5.00;;;;;9.22;100.00;98913.25;6062618;28;96288;-54
2024/01/24 05:58:25;;;;;;;;;5.00;5.00;;;;;9.19;100.00;98908.25;6064654;28;96915;-54
2024/01/24 06:01:30;;;;;;;;;7.00;5.00;;;;;9.24;100.00;98907.63;6058452;28;96327;-57
2024/01/24 06:04:33;;;;;;;;;6.00;5.00;;;;;9.32;100.00;98893.97;6059918;28;96298;-57
2024/01/24 06:07:37;;;;;;;;;5.00;4.00;;;;;9.34;100.00;98892.69;6060017;28;96471;-57
2024/01/24 06:10:41;;;;;;;;;5.00;5.00;;;;;9.36;100.00;98885.25;6061592;28;96715;-57
2024/01/24 06:13:44;;;;;;;;;5.00;5.00;;;;;9.42;100.00;98864.72;6060283;28;97049;-57
2024/01/24 06:16:49;;;;;;;;;4.75;3.75;;;;;9.42;100.00;98862.88;6063301;28;96479;-57
2024/01/24 06:19:52;;;;;;;;;4.00;4.00;;;;;9.46;100.00;98857.88;6057585;28;96302;-57
2024/01/24 06:22:56;;;;;;;;;4.20;3.80;;;;;9.40;100.00;98837.19;6046677;28;96356;-57
2024/01/24 06:25:59;;;;;;;;;6.00;5.00;;;;;9.54;100.00;98841.47;6070528;28;96399;-57
2024/01/24 06:29:02;;;;;;;;;7.40;7.00;;;;;9.55;100.00;98835.88;6063967;28;96242;-57
2024/01/24 06:32:07;;;;;;;;;5.00;5.00;;;;;9.58;100.00;98826.53;6056924;28;96406;-57
2024/01/24 06:35:10;;;;;;;;;7.00;7.00;;;;;9.65;100.00;98821.13;6042616;28;96248;-57
2024/01/24 06:38:14;;;;;;;;;6.00;5.00;;;;;9.72;100.00;98817.34;6066687;28;96294;-57
2024/01/24 06:41:17;;;;;;;;;4.60;4.00;;;;;9.76;100.00;98815.88;6075587;28;96185;-57
2024/01/24 06:44:20;;;;;;;;;7.00;6.00;;;;;9.69;100.00;98793.53;6075811;28;96283;-57
2024/01/24 06:47:25;;;;;;;;;4.00;4.00;;;;;9.77;100.00;98785.22;6404690;23;98033;-55
2024/01/24 07:01:40;;;;;;;;;6.50;5.75;;;;;9.97;100.00;98782.34;6011261;28;96371;-56
2024/01/24 07:04:46;;;;;;;;;4.00;4.00;;;;;10.02;100.00;98782.50;6713301;23;98455;-57
2024/01/24 07:07:49;;;;;;;;;6.00;5.00;;;;;9.98;100.00;98770.53;6052158;28;96456;-56
2024/01/24 07:10:52;;;;;;;;;5.00;5.00;;;;;10.00;100.00;98754.97;6063525;28;96554;-56
2024/01/24 07:13:55;;;;;;;;;5.00;5.00;;;;;10.04;100.00;98753.50;6072829;28;96529;-57
2024/01/24 07:16:58;;;;;;;;;6.40;6.00;;;;;9.93;100.00;98741.56;6069354;28;96599;-55
2024/01/24 07:20:03;;;;;;;;;8.25;6.00;;;;;10.00;100.00;98744.22;6043765;28;96934;-55
2024/01/24 07:23:07;;;;;;;;;5.50;4.00;;;;;9.96;100.00;98730.38;6043210;28;96627;-56
2024/01/24 07:26:10;;;;;;;;;6.00;5.00;;;;;10.01;100.00;98729.69;6042272;28;96635;-55
2024/01/24 07:29:13;;;;;;;;;7.50;7.00;;;;;9.92;100.00;98704.09;6038019;28;96412;-55
2024/01/24 07:32:16;;;;;;;;;4.50;4.50;;;;;10.05;100.00;98700.44;6036050;28;97543;-56
2024/01/24 07:35:21;;;;;;;;;6.00;6.00;;;;;10.09;100.00;98705.16;6037721;28;97351;-55
2024/01/24 07:38:24;;;;;;;;;5.50;5.00;;;;;10.03;100.00;98695.28;6042325;28;96351;-55
2024/01/24 07:41:27;;;;;;;;;5.60;5.00;;;;;9.96;100.00;98683.75;6024278;28;96462;-55
2024/01/24 07:44:30;;;;;;;;;6.60;5.20;;;;;9.86;100.00;98680.75;6043588;28;96812;-55
2024/01/24 07:47:35;;;;;;;;;5.00;4.60;;;;;9.83;100.00;98679.31;6044032;28;96197;-56
2024/01/24 07:50:41;;;;;;;;;4.40;4.00;;;;;9.80;100.00;98687.03;6044131;28;96439;-55
2024/01/24 07:53:45;;;;;;;;;5.50;4.50;;;;;9.89;100.00;98680.28;6040447;28;96330;-55
2024/01/24 07:56:48;;;;;;;;;3.60;3.00;;;;;9.77;100.00;98664.06;6042381;28;96666;-55
2024/01/24 07:59:52;;;;;;;;;6.33;5.00;;;;;9.99;100.00;98654.50;6044339;28;97577;-55
2024/01/24 08:02:58;;;;;;;;;2.40;2.00;;;;;10.06;100.00;98667.91;6044175;28;96355;-55
2024/01/24 08:06:04;;;;;;;;;1.40;1.40;;;;;10.23;100.00;98638.53;6036623;28;96724;-55
2024/01/24 08:09:07;;;;;;;;;3.00;3.00;;;;;10.38;100.00;98639.78;6035016;28;96817;-55
2024/01/24 08:12:14;;;;;;;;;2.00;2.00;;;;;10.56;100.00;98636.22;6040247;28;97182;-55
2024/01/24 08:15:17;;;;;;;;;2.80;2.00;;;;;10.53;100.00;98627.78;6043261;28;96447;-55
2024/01/24 08:18:20;;;;;;;;;2.00;2.00;;;;;10.75;100.00;98623.56;6028774;28;96502;-55
2024/01/24 08:21:25;;;;;;;;;2.00;2.00;;;;;10.61;100.00;98604.03;6044257;28;97133;-55
2024/01/24 08:24:28;;;;;;;;;3.00;3.00;;;;;10.66;100.00;98611.41;6042892;28;96447;-55
2024/01/24 08:27:31;;;;;;;;;2.50;2.50;;;;;10.54;100.00;98597.09;6048181;28;96718;-55
2024/01/24 08:30:34;;;;;;;;;2.00;2.00;;;;;10.39;100.00;98586.72;6065692;28;96608;-57
2024/01/24 08:33:38;;;;;;;;;2.20;2.20;;;;;10.65;100.00;98586.34;6055602;28;96334;-56
2024/01/24 08:36:43;;;;;;;;;2.00;2.00;;;;;10.53;100.00;98606.22;6058273;28;96434;-56
2024/01/24 08:39:46;;;;;;;;;2.00;2.00;;;;;10.56;100.00;98590.41;6053522;28;96938;-57
2024/01/24 08:42:50;;;;;;;;;2.00;2.00;;;;;10.56;100.00;98600.38;6061833;28;96384;-56
2024/01/24 08:45:53;;;;;;;;;3.00;2.00;;;;;10.54;100.00;98595.22;6058012;28;96311;-56
2024/01/24 08:48:56;;;;;;;;;3.20;2.20;;;;;10.67;100.00;98588.81;6070899;28;96354;-56
2024/01/24 08:52:00;;;;;;;;;2.00;2.00;;;;;10.62;100.00;98581.41;6070794;28;96382;-56
2024/01/24 08:55:04;;;;;;;;;1.40;1.40;;;;;10.61;100.00;98565.47;6071174;28;96363;-56
2024/01/24 08:58:08;;;;;;;;;3.00;2.60;;;;;10.69;100.00;98554.38;6071547;28;96138;-56
2024/01/24 09:01:13;;;;;;;;;3.00;2.00;;;;;10.78;100.00;98544.88;6020860;28;96446;-57
2024/01/24 09:04:16;;;;;;;;;2.00;1.20;;;;;10.83;100.00;98547.72;6068084;28;96344;-56
2024/01/24 09:07:21;;;;;;;;;2.00;1.00;;;;;10.81;100.00;98556.03;6059561;28;96322;-56
2024/01/24 09:10:25;;;;;;;;;2.00;2.00;;;;;10.90;100.00;98553.81;6068890;28;96304;-56
2024/01/24 09:13:28;;;;;;;;;2.00;2.00;;;;;10.85;100.00;98532.09;6048839;28;97413;-56
2024/01/24 09:16:31;;;;;;;;;1.00;1.00;;;;;10.70;100.00;98504.78;6066257;28;96441;-56
2024/01/24 09:19:35;;;;;;;;;1.00;1.00;;;;;10.88;100.00;98537.06;6058552;28;96151;-56
2024/01/24 09:22:39;;;;;;;;;2.00;2.00;;;;;10.96;100.00;98512.44;6063002;28;96299;-56
2024/01/24 09:25:43;;;;;;;;;2.00;1.80;;;;;11.00;100.00;98483.09;6064459;28;96151;-56
2024/01/24 09:28:46;;;;;;;;;4.00;2.00;;;;;10.99;100.00;98470.69;6064976;28;96339;-56
2024/01/24 09:31:50;;;;;;;;;2.75;2.00;;;;;10.97;100.00;98472.81;6063786;28;96396;-56
2024/01/24 09:34:53;;;;;;;;;2.00;2.00;;;;;10.98;100.00;98459.09;6061244;28;96269;-57
2024/01/24 09:37:59;;;;;;;;;2.00;2.00;;;;;11.01;100.00;98464.00;6039309;28;96754;-55
2024/01/24 09:41:10;;;;;;;;;2.00;2.00;;;;;11.02;100.00;98472.91;6038851;28;96465;-55
2024/01/24 09:44:17;;;;;;;;;2.00;2.00;;;;;11.03;100.00;98467.31;6016275;28;96991;-55
2024/01/24 09:47:22;;;;;;;;;2.40;2.40;;;;;11.15;100.00;98486.16;6016749;28;97004;-55
2024/01/24 09:50:26;;;;;;;;;2.00;2.00;;;;;11.19;100.00;98495.47;6008915;28;98333;-55
2024/01/24 09:53:35;;;;;;;;;1.00;1.00;;;;;11.29;100.00;98483.00;6016638;28;96633;-55
2024/01/24 09:56:39;;;;;;;;;2.00;1.00;;;;;11.10;100.00;98472.56;6037028;28;97303;-55
2024/01/24 09:59:43;;;;;;;;;2.00;1.00;;;;;11.18;100.00;98453.34;6035769;28;96612;-55
2024/01/24 10:02:47;;;;;;;;;1.40;1.00;;;;;11.06;100.00;98439.84;6033584;28;96838;-55
2024/01/24 10:05:51;;;;;;;;;2.00;2.00;;;;;10.90;100.00;98462.13;6034395;28;96412;-55
2024/01/24 10:08:56;;;;;;;;;1.00;1.00;;;;;10.90;100.00;98429.75;6038494;28;96588;-55
2024/01/24 10:11:59;;;;;;;;;2.00;2.00;;;;;10.84;100.00;98415.34;6034174;28;96439;-55
2024/01/24 10:15:03;;;;;;;;;2.00;1.00;;;;;10.91;100.00;98427.88;6046736;28;97070;-55
2024/01/24 10:18:07;;;;;;;;;3.00;2.00;;;;;10.92;100.00;98397.16;6047065;28;97059;-55
2024/01/24 10:21:13;;;;;;;;;3.00;2.00;;;;;10.77;100.00;98419.22;6043545;28;96434;-55
2024/01/24 10:24:17;;;;;;;;;2.00;2.00;;;;;10.72;100.00;98413.69;6046647;28;96495;-55
2024/01/24 10:27:21;;;;;;;;;1.00;1.00;;;;;10.77;100.00;98397.63;6046183;28;96169;-55
2024/01/24 10:30:28;;;;;;;;;1.00;1.00;;;;;10.76;100.00;98396.00;6046673;28;96337;-55
2024/01/24 10:33:32;;;;;;;;;2.00;2.00;;;;;10.83;100.00;98372.44;6034002;28;96866;-55
2024/01/24 10:36:38;;;;;;;;;2.00;2.00;;;;;10.88;100.00;98388.72;6032031;28;96807;-55
2024/01/24 10:39:50;;;;;;;;;2.60;2.00;;;;;10.91;100.00;98409.00;6042366;28;96315;-55
2024/01/24 10:42:59;;;;;;;;;2.00;2.00;;;;;10.76;100.00;98377.13;6032490;28;96549;-55
2024/01/24 10:46:07;;;;;;;;;3.00;3.00;;;;;10.83;100.00;98383.22;6045153;28;96385;-55
2024/01/24 10:49:12;;;;;;;;;3.00;3.00;;;;;10.78;100.00;98386.63;6046223;28;96414;-55
2024/01/24 10:52:16;;;;;;;;;1.00;1.00;;;;;10.82;100.00;98384.28;6038657;28;96409;-55
2024/01/24 10:55:25;;;;;;;;;3.00;2.40;;;;;10.75;100.00;98362.81;6045132;28;96774;-56
2024/01/24 10:58:29;;;;;;;;;2.60;2.00;;;;;10.97;100.00;98392.72;6044890;28;96980;-55
2024/01/24 11:01:34;;;;;;;;;2.00;1.75;;;;;10.98;100.00;98362.00;6045025;28;96752;-55
2024/01/24 11:04:39;;;;;;;;;2.50;2.50;;;;;10.95;100.00;98359.75;6045009;28;96391;-55
2024/01/24 11:07:47;;;;;;;;;2.00;1.80;;;;;10.99;100.00;98358.25;6035858;28;97005;-55
2024/01/24 11:10:56;;;;;;;;;2.00;1.60;;;;;10.85;100.00;98322.59;6043633;28;97289;-55
2024/01/24 11:14:01;;;;;;;;;2.00;2.00;;;;;11.06;100.00;98315.75;6043132;28;96450;-55
2024/01/24 11:17:05;;;;;;;;;3.00;3.00;;;;;11.08;100.00;98321.75;6045475;28;97942;-55
2024/01/24 11:20:10;;;;;;;;;3.00;3.00;;;;;11.07;100.00;98311.19;6045311;28;96460;-55
2024/01/24 11:23:40;;;;;;;;;3.00;2.00;;;;;11.07;100.00;98322.81;6042056;28;96524;-55
2024/01/24 11:26:49;;;;;;;;;3.60;3.60;;;;;11.15;100.00;98322.41;6044429;28;97331;-55
2024/01/24 11:29:52;;;;;;;;;3.00;2.00;;;;;11.32;100.00;98325.19;6045128;28;97053;-55
2024/01/24 11:33:02;;;;;;;;;1.60;1.60;;;;;11.44;100.00;98317.03;6042881;28;96894;-55
2024/01/24 11:36:13;;;;;;;;;2.00;2.00;;;;;11.51;100.00;98302.34;6042924;28;96293;-55
2024/01/24 11:39:37;;;;;;;;;4.00;3.00;;;;;11.49;100.00;98309.03;6044047;28;96411;-55
2024/01/24 11:42:53;;;;;;;;;1.40;1.40;;;;;11.64;100.00;98302.03;6040930;28;96477;-55
2024/01/24 11:46:00;;;;;;;;;1.33;1.33;;;;;11.74;100.00;98306.84;6042522;28;96503;-56
2024/01/24 11:49:06;;;;;;;;;1.60;1.00;;;;;11.73;100.00;98310.59;6042668;28;96185;-55
2024/01/24 11:52:10;;;;;;;;;2.00;2.00;;;;;12.00;100.00;98284.59;6043033;28;96536;-56
2024/01/24 11:55:14;;;;;;;;;2.25;2.25;;;;;12.12;100.00;98276.41;6042509;28;96490;-55
2024/01/24 11:58:18;;;;;;;;;2.00;2.00;;;;;12.19;100.00;98260.84;6042922;28;96525;-54
2024/01/24 12:01:22;;;;;;;;;2.20;2.20;;;;;12.41;100.00;98258.22;6043040;28;96955;-54
2024/01/24 12:04:25;;;;;;;;;2.00;2.00;;;;;12.67;100.00;98271.00;6042792;28;97670;-55
2024/01/24 12:07:28;;;;;;;;;2.40;2.40;;;;;12.76;100.00;98279.50;6032376;28;96615;-54
2024/01/24 12:10:31;;;;;;;;;1.80;1.80;;;;;12.64;100.00;98289.63;6040224;28;97022;-54
2024/01/24 12:13:37;;;;;;;;;2.75;2.75;;;;;12.75;100.00;98265.19;6039680;28;96333;-54
2024/01/24 12:16:41;;;;;;;;;2.40;2.40;;;;;13.05;100.00;98250.41;6037564;28;97429;-54
2024/01/24 12:19:45;;;;;;;;;3.00;2.00;;;;;13.41;100.00;98234.31;6037825;28;96380;-53
2024/01/24 12:22:49;;;;;;;;;3.00;2.00;;;;;13.79;100.00;98243.31;6042616;28;96578;-54
2024/01/24 12:25:54;;;;;;;;;4.00;3.50;;;;;14.19;100.00;98250.94;6044326;28;96447;-53
2024/01/24 12:29:00;;;;;;;;;3.00;3.00;;;;;14.08;100.00;98246.53;6043774;28;97625;-53
2024/01/24 12:32:05;;;;;;;;;2.80;2.80;;;;;13.88;100.00;98244.47;6043839;28;96971;-53
2024/01/24 12:35:11;;;;;;;;;3.00;3.00;;;;;14.11;100.00;98232.47;6042538;28;96988;-54
2024/01/24 12:38:16;;;;;;;;;3.00;3.00;;;;;13.95;100.00;98231.53;6033671;28;97500;-54
2024/01/24 12:41:19;;;;;;;;;3.60;3.60;;;;;13.98;100.00;98241.00;6037692;28;96423;-54
2024/01/24 12:44:23;;;;;;;;;3.00;3.00;;;;;14.07;100.00;98244.91;6041698;28;96598;-54
2024/01/24 12:47:28;;;;;;;;;4.00;2.50;;;;;14.25;100.00;98233.66;6041853;28;96346;-54
2024/01/24 12:50:31;;;;;;;;;4.20;4.00;;;;;14.30;100.00;98247.25;6044247;28;96395;-53
2024/01/24 12:53:34;;;;;;;;;3.00;3.00;;;;;14.35;100.00;98222.88;6041842;28;96382;-53
2024/01/24 12:56:38;;;;;;;;;3.00;3.00;;;;;14.31;100.00;98241.56;6042495;28;96406;-53
2024/01/24 12:59:43;;;;;;;;;4.00;4.00;;;;;14.22;100.00;98213.28;6043392;28;96364;-53
2024/01/24 13:02:46;;;;;;;;;4.00;3.60;;;;;14.33;100.00;98223.13;6043325;28;97566;-54
2024/01/24 13:05:50;;;;;;;;;4.00;3.00;;;;;14.42;100.00;98228.06;6036686;28;96386;-54
2024/01/24 13:12:35;;;;;;;;;4.00;4.00;;;;;14.24;100.00;98066.63;631140;26;96458;-90
2024/01/24 13:15:40;;;;;;;;;4.00;4.00;;;;;15.33;100.00;98206.75;6043020;28;97324;-89
2024/01/24 13:18:45;;;;;;;;;3.00;3.00;;;;;15.20;100.00;98208.06;6061675;28;96974;-89
2024/01/24 13:21:49;;;;;;;;;5.00;4.00;;;;;15.26;100.00;98211.59;6072036;28;97550;-89
2024/01/24 13:24:58;;;;;;;;;4.00;4.00;;;;;15.37;100.00;98213.25;6052868;28;96393;-90
2024/01/24 13:28:02;;;;;;;;;4.00;4.00;;;;;15.32;100.00;98214.06;6099628;23;98581;-89
2024/01/24 13:31:08;;;;;;;;;3.33;2.33;;;;;15.15;100.00;98208.84;6127965;23;99110;-89
2024/01/24 13:34:12;;;;;;;;;3.00;2.00;;;;;15.16;100.00;98187.94;6167446;23;97603;-90
2024/01/24 13:41:00;;;;;;;;;2.00;2.00;;;;;16.17;100.00;98198.91;6577936;23;98260;-56
2024/01/24 13:44:04;;;;;;;;;4.00;4.00;;;;;16.43;100.00;98203.19;6907132;23;98593;-56
2024/01/24 13:47:09;;;;;;;;;4.00;3.00;;;;;16.65;100.00;98221.13;6165397;23;98184;-88
2024/01/24 13:50:12;;;;;;;;;4.40;4.00;;;;;16.59;100.00;98258.44;6066301;28;97235;-89
2024/01/24 13:53:17;;;;;;;;;3.20;3.00;;;;;16.53;100.00;98196.91;6091800;23;96560;-88
2024/01/24 13:56:20;;;;;;;;;3.00;3.00;;;;;16.43;100.00;98202.38;6565380;23;98365;-90
2024/01/24 14:07:02;;;;;;;;;5.00;5.00;;;;;15.02;100.00;98162.41;6338212;23;98453;-89
2024/01/24 14:13:52;;;;;;;;;4.00;4.00;;;;;14.92;100.00;98160.47;6645894;23;98917;-89
2024/01/24 14:16:56;;;;;;;;;4.60;4.00;;;;;15.10;100.00;98197.19;6084265;28;96331;-88
2024/01/24 14:19:59;;;;;;;;;4.40;3.40;;;;;15.17;100.00;98211.31;6054797;23;98347;-55
2024/01/24 14:23:06;;;;;;;;;3.00;2.00;;;;;15.03;100.00;98213.72;6062482;28;96272;-55
2024/01/24 14:26:09;;;;;;;;;2.75;2.00;;;;;15.13;100.00;98231.94;6045949;28;96618;-55
2024/01/24 14:29:14;;;;;;;;;3.40;3.00;;;;;15.05;100.00;98256.91;6046622;28;96267;-55
2024/01/24 14:32:20;;;;;;;;;3.75;3.00;;;;;15.01;100.00;98272.06;6045381;28;96291;-55
2024/01/24 14:35:23;;;;;;;;;3.00;2.60;;;;;14.94;100.00;98287.78;6040480;28;96521;-55
2024/01/24 14:38:28;;;;;;;;;3.00;3.00;;;;;14.84;100.00;98306.72;6055482;28;96915;-55
2024/01/24 14:41:31;;;;;;;;;3.00;2.75;;;;;14.83;100.00;98349.31;6030986;28;96598;-55
2024/01/24 14:44:34;;;;;;;;;3.40;3.40;;;;;14.67;100.00;98375.53;6042045;28;96327;-55
2024/01/24 14:47:38;;;;;;;;;3.00;2.00;;;;;14.15;100.00;98388.09;6038534;28;96443;-55
2024/01/24 14:50:41;;;;;;;;;3.20;3.20;;;;;14.01;100.00;98403.94;6060027;28;96391;-55
2024/01/24 14:53:47;;;;;;;;;3.00;2.00;;;;;13.81;100.00;98391.00;6044625;28;96632;-56
2024/01/24 14:56:51;;;;;;;;;2.00;2.00;;;;;13.43;100.00;98394.63;6025245;28;96455;-56